sensor_id;sensor_type;location;lat;lon;timestamp;pressure;altitude;pressure_sealevel;temperature;humidity
56558;BME280;43358;50.356;12.456;2023-02-26T00:00:09;94795;;;-2.5;93.7
56558;BME280;43358;50.356;12.456;2023-02-26T00:01:11;94798;;;-2.5;93.6
56558;BME280;43358;50.356;12.456;2023-02-26T00:02:12;94797;;;-2.5;94.1
56558;BME280;43358;50.356;12.456;2023-02-26T00:04:16;94801;;;-2.4;92.9
56558;BME280;43358;50.356;12.456;2023-02-26T00:06:20;94800;;;-2.5;92.8
56558;BME280;43358;50.356;12.456;2023-02-26T00:07:22;94798;;;-2.4;91.2
56558;BME280;43358;50.356;12.456;2023-02-26T00:08:24;94799;;;-2.4;90.7
56558;BME280;43358;50.356;12.456;2023-02-26T00:09:26;94796;;;-2.5;91.2
56558;BME280;43358;50.356;12.456;2023-02-26T00:10:28;94797;;;-2.5;91.6
56558;BME280;43358;50.356;12.456;2023-02-26T00:11:30;94800;;;-2.5;92.1
56558;BME280;43358;50.356;12.456;2023-02-26T00:12:34;94806;;;-2.5;94.3
56558;BME280;43358;50.356;12.456;2023-02-26T00:13:36;94806;;;-2.4;94.2
56558;BME280;43358;50.356;12.456;2023-02-26T00:14:38;94808;;;-2.4;93.3
56558;BME280;43358;50.356;12.456;2023-02-26T00:15:40;94807;;;-2.4;93.4
56558;BME280;43358;50.356;12.456;2023-02-26T00:16:42;94806;;;-2.4;92.9
56558;BME280;43358;50.356;12.456;2023-02-26T00:17:46;94808;;;-2.5;92.6
56558;BME280;43358;50.356;12.456;2023-02-26T00:18:46;94811;;;-2.5;92.1
56558;BME280;43358;50.356;12.456;2023-02-26T00:20:50;94816;;;-2.5;93.4
56558;BME280;43358;50.356;12.456;2023-02-26T00:21:52;94815;;;-2.5;93.4
56558;BME280;43358;50.356;12.456;2023-02-26T00:22:54;94813;;;-2.5;92.2
56558;BME280;43358;50.356;12.456;2023-02-26T00:23:56;94810;;;-2.5;92.8
56558;BME280;43358;50.356;12.456;2023-02-26T00:24:58;94808;;;-2.4;91.3
56558;BME280;43358;50.356;12.456;2023-02-26T00:26:00;94809;;;-2.5;91.5
56558;BME280;43358;50.356;12.456;2023-02-26T00:27:02;94809;;;-2.4;91.3
56558;BME280;43358;50.356;12.456;2023-02-26T00:28:04;94809;;;-2.5;90.5
56558;BME280;43358;50.356;12.456;2023-02-26T00:29:06;94808;;;-2.5;90.7
56558;BME280;43358;50.356;12.456;2023-02-26T00:30:08;94807;;;-2.5;91.5
56558;BME280;43358;50.356;12.456;2023-02-26T00:31:10;94807;;;-2.5;92.3
56558;BME280;43358;50.356;12.456;2023-02-26T00:32:12;94808;;;-2.5;93.1
56558;BME280;43358;50.356;12.456;2023-02-26T00:33:14;94805;;;-2.5;92.4
56558;BME280;43358;50.356;12.456;2023-02-26T00:34:16;94803;;;-2.5;93.3
56558;BME280;43358;50.356;12.456;2023-02-26T00:35:18;94805;;;-2.5;93.2
56558;BME280;43358;50.356;12.456;2023-02-26T00:36:22;94803;;;-2.5;92.1
56558;BME280;43358;50.356;12.456;2023-02-26T00:37:26;94807;;;-2.5;91.4
56558;BME280;43358;50.356;12.456;2023-02-26T00:38:24;94802;;;-2.5;91.5
56558;BME280;43358;50.356;12.456;2023-02-26T00:39:30;94799;;;-2.5;90.7
56558;BME280;43358;50.356;12.456;2023-02-26T00:40:34;94799;;;-2.5;90.8
56558;BME280;43358;50.356;12.456;2023-02-26T00:41:34;94797;;;-2.6;90.7
56558;BME280;43358;50.356;12.456;2023-02-26T00:42:36;94797;;;-2.6;91.8
56558;BME280;43358;50.356;12.456;2023-02-26T00:43:38;94799;;;-2.6;92.1
56558;BME280;43358;50.356;12.456;2023-02-26T00:44:40;94800;;;-2.6;92.4
56558;BME280;43358;50.356;12.456;2023-02-26T00:45:44;94804;;;-2.7;92
56558;BME280;43358;50.356;12.456;2023-02-26T00:46:45;94800;;;-2.7;91.7
56558;BME280;43358;50.356;12.456;2023-02-26T00:47:47;94800;;;-2.7;91
56558;BME280;43358;50.356;12.456;2023-02-26T00:48:51;94800;;;-2.7;90.7
56558;BME280;43358;50.356;12.456;2023-02-26T00:49:53;94797;;;-2.8;91
56558;BME280;43358;50.356;12.456;2023-02-26T00:50:55;94792;;;-2.8;92.3
56558;BME280;43358;50.356;12.456;2023-02-26T00:51:54;94798;;;-2.8;91.9
56558;BME280;43358;50.356;12.456;2023-02-26T00:52:59;94788;;;-2.8;91.3
56558;BME280;43358;50.356;12.456;2023-02-26T00:54:01;94793;;;-2.8;91.1
56558;BME280;43358;50.356;12.456;2023-02-26T00:55:01;94782;;;-2.9;91.1
56558;BME280;43358;50.356;12.456;2023-02-26T00:56:03;94785;;;-2.9;92.5
56558;BME280;43358;50.356;12.456;2023-02-26T00:57:05;94780;;;-2.8;93.4
56558;BME280;43358;50.356;12.456;2023-02-26T00:58:07;94775;;;-2.8;93.1
56558;BME280;43358;50.356;12.456;2023-02-26T00:59:09;94773;;;-2.8;92.7
56558;BME280;43358;50.356;12.456;2023-02-26T01:00:11;94768;;;-2.8;91.4
56558;BME280;43358;50.356;12.456;2023-02-26T01:02:15;94769;;;-2.8;92.2
56558;BME280;43358;50.356;12.456;2023-02-26T01:03:17;94770;;;-2.8;93.1
56558;BME280;43358;50.356;12.456;2023-02-26T01:04:20;94770;;;-2.8;93.4
56558;BME280;43358;50.356;12.456;2023-02-26T01:05:21;94773;;;-2.9;92.5
56558;BME280;43358;50.356;12.456;2023-02-26T01:06:26;94775;;;-3;92.4
56558;BME280;43358;50.356;12.456;2023-02-26T01:07:27;94780;;;-3;92.8
56558;BME280;43358;50.356;12.456;2023-02-26T01:08:30;94783;;;-3;93.8
56558;BME280;43358;50.356;12.456;2023-02-26T01:09:35;94787;;;-2.9;94.2
56558;BME280;43358;50.356;12.456;2023-02-26T01:10:36;94790;;;-2.9;93.9
56558;BME280;43358;50.356;12.456;2023-02-26T01:11:38;94787;;;-2.9;93.7
56558;BME280;43358;50.356;12.456;2023-02-26T01:12:40;94795;;;-2.9;94.2
56558;BME280;43358;50.356;12.456;2023-02-26T01:13:42;94789;;;-2.9;94.8
56558;BME280;43358;50.356;12.456;2023-02-26T01:14:44;94791;;;-2.8;95
56558;BME280;43358;50.356;12.456;2023-02-26T01:15:47;94793;;;-2.8;95
56558;BME280;43358;50.356;12.456;2023-02-26T01:16:50;94790;;;-2.9;94.6
56558;BME280;43358;50.356;12.456;2023-02-26T01:17:50;94789;;;-2.9;94.2
56558;BME280;43358;50.356;12.456;2023-02-26T01:18:53;94789;;;-2.9;94.5
56558;BME280;43358;50.356;12.456;2023-02-26T01:19:54;94789;;;-2.9;95
56558;BME280;43358;50.356;12.456;2023-02-26T01:20:56;94786;;;-2.9;95.1
56558;BME280;43358;50.356;12.456;2023-02-26T01:22:00;94786;;;-2.9;95
56558;BME280;43358;50.356;12.456;2023-02-26T01:23:03;94786;;;-2.8;95.4
56558;BME280;43358;50.356;12.456;2023-02-26T01:24:04;94789;;;-2.8;95.1
56558;BME280;43358;50.356;12.456;2023-02-26T01:25:05;94783;;;-2.7;95.6
56558;BME280;43358;50.356;12.456;2023-02-26T01:26:09;94783;;;-2.7;95.5
56558;BME280;43358;50.356;12.456;2023-02-26T01:27:08;94783;;;-2.7;95.3
56558;BME280;43358;50.356;12.456;2023-02-26T01:28:10;94780;;;-2.7;95.2
56558;BME280;43358;50.356;12.456;2023-02-26T01:29:12;94777;;;-2.7;94.6
56558;BME280;43358;50.356;12.456;2023-02-26T01:30:14;94783;;;-2.7;94.2
56558;BME280;43358;50.356;12.456;2023-02-26T01:31:17;94786;;;-2.7;94.2
56558;BME280;43358;50.356;12.456;2023-02-26T01:32:18;94782;;;-2.7;94.8
56558;BME280;43358;50.356;12.456;2023-02-26T01:33:21;94787;;;-2.8;94.6
56558;BME280;43358;50.356;12.456;2023-02-26T01:34:24;94787;;;-2.8;94.6
56558;BME280;43358;50.356;12.456;2023-02-26T01:35:29;94787;;;-2.8;95.4
56558;BME280;43358;50.356;12.456;2023-02-26T01:36:30;94785;;;-2.7;95.4
56558;BME280;43358;50.356;12.456;2023-02-26T01:37:32;94782;;;-2.7;94.7
56558;BME280;43358;50.356;12.456;2023-02-26T01:38:35;94786;;;-2.7;93.7
56558;BME280;43358;50.356;12.456;2023-02-26T01:40:46;94782;;;-2.8;94.5
56558;BME280;43358;50.356;12.456;2023-02-26T01:41:41;94778;;;-2.8;95
56558;BME280;43358;50.356;12.456;2023-02-26T01:42:42;94783;;;-2.8;94.9
56558;BME280;43358;50.356;12.456;2023-02-26T01:43:45;94790;;;-2.7;94.9
56558;BME280;43358;50.356;12.456;2023-02-26T01:44:48;94794;;;-2.7;95
56558;BME280;43358;50.356;12.456;2023-02-26T01:45:51;94787;;;-2.7;95
56558;BME280;43358;50.356;12.456;2023-02-26T01:46:56;94793;;;-2.7;94.6
56558;BME280;43358;50.356;12.456;2023-02-26T01:47:53;94791;;;-2.7;94.5
56558;BME280;43358;50.356;12.456;2023-02-26T01:48:54;94795;;;-2.7;94.5
56558;BME280;43358;50.356;12.456;2023-02-26T01:49:56;94797;;;-2.7;94.7
56558;BME280;43358;50.356;12.456;2023-02-26T01:50:58;94797;;;-2.7;94.8
56558;BME280;43358;50.356;12.456;2023-02-26T01:52:00;94797;;;-2.7;94.4
56558;BME280;43358;50.356;12.456;2023-02-26T01:54:04;94799;;;-2.7;93.4
56558;BME280;43358;50.356;12.456;2023-02-26T01:55:06;94803;;;-2.7;94.3
56558;BME280;43358;50.356;12.456;2023-02-26T01:56:09;94801;;;-2.7;94.3
56558;BME280;43358;50.356;12.456;2023-02-26T01:57:11;94805;;;-2.7;93.9
56558;BME280;43358;50.356;12.456;2023-02-26T01:58:12;94801;;;-2.8;93.8
56558;BME280;43358;50.356;12.456;2023-02-26T01:59:15;94802;;;-2.8;94.3
56558;BME280;43358;50.356;12.456;2023-02-26T02:00:16;94806;;;-2.8;94.5
56558;BME280;43358;50.356;12.456;2023-02-26T02:01:18;94810;;;-2.8;94.3
56558;BME280;43358;50.356;12.456;2023-02-26T02:02:21;94810;;;-2.8;94.8
56558;BME280;43358;50.356;12.456;2023-02-26T02:03:22;94811;;;-2.7;94.9
56558;BME280;43358;50.356;12.456;2023-02-26T02:04:24;94807;;;-2.6;95.3
56558;BME280;43358;50.356;12.456;2023-02-26T02:05:27;94806;;;-2.6;95.1
56558;BME280;43358;50.356;12.456;2023-02-26T02:06:28;94810;;;-2.6;94.9
56558;BME280;43358;50.356;12.456;2023-02-26T02:07:32;94813;;;-2.6;95.3
56558;BME280;43358;50.356;12.456;2023-02-26T02:08:34;94813;;;-2.6;95
56558;BME280;43358;50.356;12.456;2023-02-26T02:09:36;94814;;;-2.6;94.8
56558;BME280;43358;50.356;12.456;2023-02-26T02:10:39;94819;;;-2.6;94.5
56558;BME280;43358;50.356;12.456;2023-02-26T02:11:45;94822;;;-2.6;94.8
56558;BME280;43358;50.356;12.456;2023-02-26T02:12:43;94823;;;-2.6;95.1
56558;BME280;43358;50.356;12.456;2023-02-26T02:13:48;94823;;;-2.6;94.7
56558;BME280;43358;50.356;12.456;2023-02-26T02:14:50;94821;;;-2.6;94.4
56558;BME280;43358;50.356;12.456;2023-02-26T02:15:50;94824;;;-2.7;94.4
56558;BME280;43358;50.356;12.456;2023-02-26T02:16:52;94821;;;-2.7;94.9
56558;BME280;43358;50.356;12.456;2023-02-26T02:17:54;94822;;;-2.6;95
56558;BME280;43358;50.356;12.456;2023-02-26T02:18:55;94816;;;-2.6;94.7
56558;BME280;43358;50.356;12.456;2023-02-26T02:20:01;94820;;;-2.6;94.6
56558;BME280;43358;50.356;12.456;2023-02-26T02:21:06;94826;;;-2.6;94.8
56558;BME280;43358;50.356;12.456;2023-02-26T02:22:06;94824;;;-2.6;94.3
56558;BME280;43358;50.356;12.456;2023-02-26T02:23:06;94817;;;-2.5;93.9
56558;BME280;43358;50.356;12.456;2023-02-26T02:24:05;94821;;;-2.5;93.7
56558;BME280;43358;50.356;12.456;2023-02-26T02:25:10;94822;;;-2.5;94.3
56558;BME280;43358;50.356;12.456;2023-02-26T02:26:12;94827;;;-2.4;94.3
56558;BME280;43358;50.356;12.456;2023-02-26T02:27:10;94824;;;-2.5;93.8
56558;BME280;43358;50.356;12.456;2023-02-26T02:28:14;94823;;;-2.5;93.7
56558;BME280;43358;50.356;12.456;2023-02-26T02:29:20;94822;;;-2.5;93.9
56558;BME280;43358;50.356;12.456;2023-02-26T02:30:22;94825;;;-2.5;93.5
56558;BME280;43358;50.356;12.456;2023-02-26T02:31:19;94827;;;-2.5;93.7
56558;BME280;43358;50.356;12.456;2023-02-26T02:32:20;94826;;;-2.5;94
56558;BME280;43358;50.356;12.456;2023-02-26T02:33:24;94829;;;-2.5;92.9
56558;BME280;43358;50.356;12.456;2023-02-26T02:34:25;94833;;;-2.6;92.6
56558;BME280;43358;50.356;12.456;2023-02-26T02:35:28;94839;;;-2.6;93.1
56558;BME280;43358;50.356;12.456;2023-02-26T02:36:32;94836;;;-2.6;93.8
56558;BME280;43358;50.356;12.456;2023-02-26T02:37:35;94834;;;-2.6;93.6
56558;BME280;43358;50.356;12.456;2023-02-26T02:38:36;94837;;;-2.6;93.5
56558;BME280;43358;50.356;12.456;2023-02-26T02:39:39;94833;;;-2.6;93.9
56558;BME280;43358;50.356;12.456;2023-02-26T02:41:23;94834;;;-2.6;93.6
56558;BME280;43358;50.356;12.456;2023-02-26T02:42:22;94841;;;-2.6;94.2
56558;BME280;43358;50.356;12.456;2023-02-26T02:43:21;94839;;;-2.6;93.5
56558;BME280;43358;50.356;12.456;2023-02-26T02:44:22;94843;;;-2.6;93.4
56558;BME280;43358;50.356;12.456;2023-02-26T02:45:22;94843;;;-2.5;93.4
56558;BME280;43358;50.356;12.456;2023-02-26T02:46:22;94845;;;-2.6;93.3
56558;BME280;43358;50.356;12.456;2023-02-26T02:47:21;94845;;;-2.6;93.8
56558;BME280;43358;50.356;12.456;2023-02-26T02:48:22;94844;;;-2.6;94.2
56558;BME280;43358;50.356;12.456;2023-02-26T02:49:25;94847;;;-2.6;94.5
56558;BME280;43358;50.356;12.456;2023-02-26T02:50:23;94848;;;-2.6;95.1
56558;BME280;43358;50.356;12.456;2023-02-26T02:51:22;94856;;;-2.5;94.7
56558;BME280;43358;50.356;12.456;2023-02-26T02:52:22;94847;;;-2.6;94.3
56558;BME280;43358;50.356;12.456;2023-02-26T02:53:22;94857;;;-2.5;94.6
56558;BME280;43358;50.356;12.456;2023-02-26T02:54:22;94854;;;-2.5;93.2
56558;BME280;43358;50.356;12.456;2023-02-26T02:55:22;94858;;;-2.5;92.6
56558;BME280;43358;50.356;12.456;2023-02-26T02:56:22;94862;;;-2.5;93.4
56558;BME280;43358;50.356;12.456;2023-02-26T02:57:21;94863;;;-2.5;93.6
56558;BME280;43358;50.356;12.456;2023-02-26T02:58:22;94865;;;-2.5;93.7
56558;BME280;43358;50.356;12.456;2023-02-26T02:59:22;94864;;;-2.5;93.7
56558;BME280;43358;50.356;12.456;2023-02-26T03:00:21;94868;;;-2.5;92.8
56558;BME280;43358;50.356;12.456;2023-02-26T03:01:21;94863;;;-2.5;92.9
56558;BME280;43358;50.356;12.456;2023-02-26T03:02:23;94864;;;-2.5;93.7
56558;BME280;43358;50.356;12.456;2023-02-26T03:03:24;94869;;;-2.5;93.6
56558;BME280;43358;50.356;12.456;2023-02-26T03:04:25;94868;;;-2.5;94
56558;BME280;43358;50.356;12.456;2023-02-26T03:05:28;94875;;;-2.5;95.2
56558;BME280;43358;50.356;12.456;2023-02-26T03:06:30;94871;;;-2.5;95.1
56558;BME280;43358;50.356;12.456;2023-02-26T03:07:34;94869;;;-2.5;94.2
56558;BME280;43358;50.356;12.456;2023-02-26T03:08:35;94875;;;-2.5;94.2
56558;BME280;43358;50.356;12.456;2023-02-26T03:09:37;94881;;;-2.6;94.3
56558;BME280;43358;50.356;12.456;2023-02-26T03:10:39;94884;;;-2.6;94.3
56558;BME280;43358;50.356;12.456;2023-02-26T03:11:41;94879;;;-2.6;94.2
56558;BME280;43358;50.356;12.456;2023-02-26T03:12:43;94883;;;-2.6;94.6
56558;BME280;43358;50.356;12.456;2023-02-26T03:13:45;94880;;;-2.6;94.6
56558;BME280;43358;50.356;12.456;2023-02-26T03:14:47;94879;;;-2.6;94.3
56558;BME280;43358;50.356;12.456;2023-02-26T03:15:52;94888;;;-2.6;94.6
56558;BME280;43358;50.356;12.456;2023-02-26T03:16:55;94895;;;-2.6;94.9
56558;BME280;43358;50.356;12.456;2023-02-26T03:17:54;94893;;;-2.6;95.1
56558;BME280;43358;50.356;12.456;2023-02-26T03:18:59;94890;;;-2.5;94.7
56558;BME280;43358;50.356;12.456;2023-02-26T03:19:59;94895;;;-2.5;94
56558;BME280;43358;50.356;12.456;2023-02-26T03:21:01;94889;;;-2.5;93.6
56558;BME280;43358;50.356;12.456;2023-02-26T03:23:04;94888;;;-2.5;93.7
56558;BME280;43358;50.356;12.456;2023-02-26T03:24:06;94893;;;-2.5;94.1
56558;BME280;43358;50.356;12.456;2023-02-26T03:25:08;94897;;;-2.5;94.5
56558;BME280;43358;50.356;12.456;2023-02-26T03:26:10;94901;;;-2.6;94.5
56558;BME280;43358;50.356;12.456;2023-02-26T03:27:12;94899;;;-2.6;94.5
56558;BME280;43358;50.356;12.456;2023-02-26T03:28:15;94899;;;-2.6;94.8
56558;BME280;43358;50.356;12.456;2023-02-26T03:29:18;94901;;;-2.6;94.6
56558;BME280;43358;50.356;12.456;2023-02-26T03:30:18;94901;;;-2.7;94.8
56558;BME280;43358;50.356;12.456;2023-02-26T03:31:20;94903;;;-2.7;95.5
56558;BME280;43358;50.356;12.456;2023-02-26T03:32:22;94904;;;-2.7;95.8
56558;BME280;43358;50.356;12.456;2023-02-26T03:33:26;94902;;;-2.7;95.6
56558;BME280;43358;50.356;12.456;2023-02-26T03:34:27;94907;;;-2.7;95.3
56558;BME280;43358;50.356;12.456;2023-02-26T03:35:29;94909;;;-2.7;94.8
56558;BME280;43358;50.356;12.456;2023-02-26T03:36:31;94910;;;-2.7;94.9
56558;BME280;43358;50.356;12.456;2023-02-26T03:37:33;94915;;;-2.7;95.6
56558;BME280;43358;50.356;12.456;2023-02-26T03:38:35;94915;;;-2.7;94
56558;BME280;43358;50.356;12.456;2023-02-26T03:39:36;94914;;;-2.7;94
56558;BME280;43358;50.356;12.456;2023-02-26T03:40:38;94913;;;-2.6;94.2
56558;BME280;43358;50.356;12.456;2023-02-26T03:41:41;94915;;;-2.6;93.8
56558;BME280;43358;50.356;12.456;2023-02-26T03:42:43;94920;;;-2.6;93.7
56558;BME280;43358;50.356;12.456;2023-02-26T03:43:45;94918;;;-2.6;94.5
56558;BME280;43358;50.356;12.456;2023-02-26T03:44:47;94921;;;-2.5;94.2
56558;BME280;43358;50.356;12.456;2023-02-26T03:45:49;94919;;;-2.5;94.2
56558;BME280;43358;50.356;12.456;2023-02-26T03:46:51;94922;;;-2.5;94.5
56558;BME280;43358;50.356;12.456;2023-02-26T03:47:52;94923;;;-2.4;94.7
56558;BME280;43358;50.356;12.456;2023-02-26T03:48:54;94927;;;-2.4;94.8
56558;BME280;43358;50.356;12.456;2023-02-26T03:49:57;94926;;;-2.4;94.9
56558;BME280;43358;50.356;12.456;2023-02-26T03:50:59;94924;;;-2.4;94.4
56558;BME280;43358;50.356;12.456;2023-02-26T03:52:00;94935;;;-2.4;94
56558;BME280;43358;50.356;12.456;2023-02-26T03:53:03;94936;;;-2.5;94
56558;BME280;43358;50.356;12.456;2023-02-26T03:54:05;94932;;;-2.5;93.9
56558;BME280;43358;50.356;12.456;2023-02-26T03:55:07;94936;;;-2.5;94.1
56558;BME280;43358;50.356;12.456;2023-02-26T03:56:10;94934;;;-2.5;94.3
56558;BME280;43358;50.356;12.456;2023-02-26T03:57:10;94934;;;-2.5;93.5
56558;BME280;43358;50.356;12.456;2023-02-26T03:58:12;94938;;;-2.5;93.6
56558;BME280;43358;50.356;12.456;2023-02-26T03:59:14;94936;;;-2.5;94.6
56558;BME280;43358;50.356;12.456;2023-02-26T04:00:16;94940;;;-2.5;94.5
56558;BME280;43358;50.356;12.456;2023-02-26T04:01:19;94941;;;-2.4;92.7
56558;BME280;43358;50.356;12.456;2023-02-26T04:02:21;94942;;;-2.4;92.5
56558;BME280;43358;50.356;12.456;2023-02-26T04:03:24;94942;;;-2.4;92.5
56558;BME280;43358;50.356;12.456;2023-02-26T04:04:25;94943;;;-2.4;92.5
56558;BME280;43358;50.356;12.456;2023-02-26T04:05:26;94946;;;-2.4;92.3
56558;BME280;43358;50.356;12.456;2023-02-26T04:06:28;94946;;;-2.5;93.1
56558;BME280;43358;50.356;12.456;2023-02-26T04:08:32;94948;;;-2.5;93.9
56558;BME280;43358;50.356;12.456;2023-02-26T04:09:34;94951;;;-2.5;94.4
56558;BME280;43358;50.356;12.456;2023-02-26T04:10:37;94950;;;-2.6;94.7
56558;BME280;43358;50.356;12.456;2023-02-26T04:11:38;94947;;;-2.6;94.7
56558;BME280;43358;50.356;12.456;2023-02-26T04:12:40;94950;;;-2.5;94.3
56558;BME280;43358;50.356;12.456;2023-02-26T04:13:42;94952;;;-2.5;93.9
56558;BME280;43358;50.356;12.456;2023-02-26T04:14:44;94951;;;-2.5;94.5
56558;BME280;43358;50.356;12.456;2023-02-26T04:15:46;94952;;;-2.5;94.4
56558;BME280;43358;50.356;12.456;2023-02-26T04:16:48;94950;;;-2.5;94.8
56558;BME280;43358;50.356;12.456;2023-02-26T04:17:50;94951;;;-2.5;94.7
56558;BME280;43358;50.356;12.456;2023-02-26T04:18:52;94952;;;-2.5;94.6
56558;BME280;43358;50.356;12.456;2023-02-26T04:19:54;94956;;;-2.5;94.3
56558;BME280;43358;50.356;12.456;2023-02-26T04:20:56;94956;;;-2.5;93.9
56558;BME280;43358;50.356;12.456;2023-02-26T04:21:58;94956;;;-2.5;93.9
56558;BME280;43358;50.356;12.456;2023-02-26T04:23:00;94956;;;-2.6;94.2
56558;BME280;43358;50.356;12.456;2023-02-26T04:24:02;94955;;;-2.6;94.7
56558;BME280;43358;50.356;12.456;2023-02-26T04:25:04;94960;;;-2.6;94.4
56558;BME280;43358;50.356;12.456;2023-02-26T04:26:06;94960;;;-2.6;94.8
56558;BME280;43358;50.356;12.456;2023-02-26T04:27:08;94960;;;-2.6;94
56558;BME280;43358;50.356;12.456;2023-02-26T04:28:10;94963;;;-2.7;93.8
56558;BME280;43358;50.356;12.456;2023-02-26T04:29:12;94963;;;-2.7;94
56558;BME280;43358;50.356;12.456;2023-02-26T04:30:14;94958;;;-2.6;94.9
56558;BME280;43358;50.356;12.456;2023-02-26T04:31:16;94959;;;-2.6;94.7
56558;BME280;43358;50.356;12.456;2023-02-26T04:32:18;94966;;;-2.6;94.3
56558;BME280;43358;50.356;12.456;2023-02-26T04:33:20;94961;;;-2.6;94.9
56558;BME280;43358;50.356;12.456;2023-02-26T04:35:24;94967;;;-2.5;94.9
56558;BME280;43358;50.356;12.456;2023-02-26T04:36:26;94969;;;-2.6;94.7
56558;BME280;43358;50.356;12.456;2023-02-26T04:37:28;94974;;;-2.6;94.8
56558;BME280;43358;50.356;12.456;2023-02-26T04:38:30;94972;;;-2.6;95.3
56558;BME280;43358;50.356;12.456;2023-02-26T04:39:32;94975;;;-2.5;95.5
56558;BME280;43358;50.356;12.456;2023-02-26T04:40:34;94971;;;-2.5;95.7
56558;BME280;43358;50.356;12.456;2023-02-26T04:41:36;94973;;;-2.5;94.8
56558;BME280;43358;50.356;12.456;2023-02-26T04:42:38;94981;;;-2.5;94.5
56558;BME280;43358;50.356;12.456;2023-02-26T04:43:40;94978;;;-2.5;95.3
56558;BME280;43358;50.356;12.456;2023-02-26T04:44:42;94977;;;-2.5;95.1
56558;BME280;43358;50.356;12.456;2023-02-26T04:45:44;94982;;;-2.5;94.9
56558;BME280;43358;50.356;12.456;2023-02-26T04:46:46;94981;;;-2.5;94.8
56558;BME280;43358;50.356;12.456;2023-02-26T04:47:48;94980;;;-2.5;94.7
56558;BME280;43358;50.356;12.456;2023-02-26T04:48:50;94984;;;-2.6;94.8
56558;BME280;43358;50.356;12.456;2023-02-26T04:49:52;94989;;;-2.6;94.3
56558;BME280;43358;50.356;12.456;2023-02-26T04:50:54;94987;;;-2.6;94.8
56558;BME280;43358;50.356;12.456;2023-02-26T04:51:56;94991;;;-2.6;94.5
56558;BME280;43358;50.356;12.456;2023-02-26T04:52:58;94994;;;-2.6;94.6
56558;BME280;43358;50.356;12.456;2023-02-26T04:54:00;94990;;;-2.6;95
56558;BME280;43358;50.356;12.456;2023-02-26T04:55:02;94989;;;-2.7;95
56558;BME280;43358;50.356;12.456;2023-02-26T04:56:04;94988;;;-2.7;95.2
56558;BME280;43358;50.356;12.456;2023-02-26T04:57:06;94995;;;-2.6;95.8
56558;BME280;43358;50.356;12.456;2023-02-26T04:58:08;94993;;;-2.6;95.4
56558;BME280;43358;50.356;12.456;2023-02-26T04:59:10;94997;;;-2.6;95.2
56558;BME280;43358;50.356;12.456;2023-02-26T05:00:12;94995;;;-2.6;95.7
56558;BME280;43358;50.356;12.456;2023-02-26T05:01:15;94995;;;-2.5;95.2
56558;BME280;43358;50.356;12.456;2023-02-26T05:02:17;95001;;;-2.5;94.4
56558;BME280;43358;50.356;12.456;2023-02-26T05:03:19;94999;;;-2.5;94.1
56558;BME280;43358;50.356;12.456;2023-02-26T05:04:21;94999;;;-2.4;94.4
56558;BME280;43358;50.356;12.456;2023-02-26T05:05:23;95001;;;-2.5;93.6
56558;BME280;43358;50.356;12.456;2023-02-26T05:06:25;95001;;;-2.5;93.8
56558;BME280;43358;50.356;12.456;2023-02-26T05:07:36;95003;;;-2.6;93.5
56558;BME280;43358;50.356;12.456;2023-02-26T05:08:30;95004;;;-2.6;93.6
56558;BME280;43358;50.356;12.456;2023-02-26T05:09:34;95006;;;-2.6;94.2
56558;BME280;43358;50.356;12.456;2023-02-26T05:10:36;95011;;;-2.7;94.5
56558;BME280;43358;50.356;12.456;2023-02-26T05:11:38;95012;;;-2.6;94.7
56558;BME280;43358;50.356;12.456;2023-02-26T05:12:40;95015;;;-2.6;94.4
56558;BME280;43358;50.356;12.456;2023-02-26T05:13:42;95011;;;-2.5;94.1
56558;BME280;43358;50.356;12.456;2023-02-26T05:14:44;95014;;;-2.6;94
56558;BME280;43358;50.356;12.456;2023-02-26T05:15:46;95009;;;-2.6;94.1
56558;BME280;43358;50.356;12.456;2023-02-26T05:16:48;95016;;;-2.5;94.2
56558;BME280;43358;50.356;12.456;2023-02-26T05:17:50;95013;;;-2.5;94.5
56558;BME280;43358;50.356;12.456;2023-02-26T05:18:52;95016;;;-2.6;94.3
56558;BME280;43358;50.356;12.456;2023-02-26T05:19:54;95017;;;-2.6;94.5
56558;BME280;43358;50.356;12.456;2023-02-26T05:20:56;95023;;;-2.6;94.8
56558;BME280;43358;50.356;12.456;2023-02-26T05:21:58;95026;;;-2.6;95.1
56558;BME280;43358;50.356;12.456;2023-02-26T05:23:00;95025;;;-2.6;95.1
56558;BME280;43358;50.356;12.456;2023-02-26T05:24:02;95030;;;-2.6;95.6
56558;BME280;43358;50.356;12.456;2023-02-26T05:25:06;95026;;;-2.6;95.7
56558;BME280;43358;50.356;12.456;2023-02-26T05:26:06;95034;;;-2.6;95.6
56558;BME280;43358;50.356;12.456;2023-02-26T05:27:08;95028;;;-2.6;95
56558;BME280;43358;50.356;12.456;2023-02-26T05:28:10;95034;;;-2.6;95.1
56558;BME280;43358;50.356;12.456;2023-02-26T05:29:12;95034;;;-2.5;94
56558;BME280;43358;50.356;12.456;2023-02-26T05:30:14;95033;;;-2.5;94.5
56558;BME280;43358;50.356;12.456;2023-02-26T05:31:16;95033;;;-2.4;94.1
56558;BME280;43358;50.356;12.456;2023-02-26T05:32:18;95035;;;-2.4;93.9
56558;BME280;43358;50.356;12.456;2023-02-26T05:33:20;95040;;;-2.4;94
56558;BME280;43358;50.356;12.456;2023-02-26T05:35:24;95040;;;-2.5;95.1
56558;BME280;43358;50.356;12.456;2023-02-26T05:36:26;95043;;;-2.4;94.9
56558;BME280;43358;50.356;12.456;2023-02-26T05:37:28;95048;;;-2.4;94.2
56558;BME280;43358;50.356;12.456;2023-02-26T05:38:32;95055;;;-2.5;93.8
56558;BME280;43358;50.356;12.456;2023-02-26T05:39:35;95039;;;-2.5;93.9
56558;BME280;43358;50.356;12.456;2023-02-26T05:40:37;95047;;;-2.5;94.6
56558;BME280;43358;50.356;12.456;2023-02-26T05:41:39;95052;;;-2.4;95.4
56558;BME280;43358;50.356;12.456;2023-02-26T05:42:41;95055;;;-2.4;94.6
56558;BME280;43358;50.356;12.456;2023-02-26T05:43:43;95060;;;-2.4;95.1
56558;BME280;43358;50.356;12.456;2023-02-26T05:44:45;95062;;;-2.4;95.1
56558;BME280;43358;50.356;12.456;2023-02-26T05:45:48;95057;;;-2.4;95.1
56558;BME280;43358;50.356;12.456;2023-02-26T05:46:49;95055;;;-2.4;95.2
56558;BME280;43358;50.356;12.456;2023-02-26T05:47:51;95060;;;-2.4;95.2
56558;BME280;43358;50.356;12.456;2023-02-26T05:48:54;95064;;;-2.4;94.3
56558;BME280;43358;50.356;12.456;2023-02-26T05:49:56;95061;;;-2.4;93.6
56558;BME280;43358;50.356;12.456;2023-02-26T05:50:58;95053;;;-2.4;93.8
56558;BME280;43358;50.356;12.456;2023-02-26T05:52:00;95063;;;-2.4;94.1
56558;BME280;43358;50.356;12.456;2023-02-26T05:53:02;95061;;;-2.4;93.4
56558;BME280;43358;50.356;12.456;2023-02-26T05:54:04;95068;;;-2.4;93.4
56558;BME280;43358;50.356;12.456;2023-02-26T05:55:07;95064;;;-2.4;93.8
56558;BME280;43358;50.356;12.456;2023-02-26T05:56:08;95066;;;-2.4;94.8
56558;BME280;43358;50.356;12.456;2023-02-26T05:57:10;95071;;;-2.4;94.3
56558;BME280;43358;50.356;12.456;2023-02-26T05:58:12;95065;;;-2.3;94